Time;durP1;ratioP1;P1;durP2;ratioP2;P2;SDS_P1;SDS_P2;PMS_P1;PMS_P2;Temp;Humidity;BMP_temperature;BMP_pressure;BME280_temperature;BME280_humidity;BME280_pressure;Samples;Min_cycle;Max_cycle;Signal;HPM_P1;HPM_P2
2023/03/29 00:01:55;;;;;;;20.70;8.57;;;-5.10;1.00;;;;;;8302497;28;20193;-82
2023/03/29 00:06:04;;;;;;;21.03;8.90;;;-5.00;99.90;;;;;;8301915;28;20180;-82
2023/03/29 00:10:06;;;;;;;16.00;7.37;;;-5.00;99.90;;;;;;8306151;28;20211;-83
2023/03/29 00:14:07;;;;;;;18.87;8.07;;;-5.00;65.00;;;;;;8304744;28;20193;-83
2023/03/29 00:18:08;;;;;;;16.53;8.07;;;-5.00;1.00;;;;;;8314075;28;20189;-82
2023/03/29 00:22:09;;;;;;;24.93;11.10;;;-5.00;1.00;;;;;;8318281;28;20205;-84
2023/03/29 00:26:10;;;;;;;33.47;13.93;;;-5.10;1.00;;;;;;8329452;28;20194;-83
2023/03/29 00:30:12;;;;;;;38.87;16.20;;;-5.00;22.20;;;;;;8328727;28;20217;-84
2023/03/29 00:34:13;;;;;;;50.90;20.90;;;-5.00;99.90;;;;;;8317187;28;20185;-83
2023/03/29 00:38:15;;;;;;;54.80;23.97;;;-5.10;99.90;;;;;;8307536;28;20206;-82
2023/03/29 00:42:16;;;;;;;55.53;24.67;;;-5.10;1.00;;;;;;8301941;28;20293;-82
2023/03/29 00:46:17;;;;;;;60.47;29.03;;;-5.00;36.90;;;;;;8300552;28;20195;-82
2023/03/29 00:50:41;;;;;;;62.13;29.23;;;-5.00;1.00;;;;;;8306823;28;20249;-84
2023/03/29 00:54:43;;;;;;;85.50;36.77;;;-4.90;13.00;;;;;;8298315;28;20240;-82
2023/03/29 00:59:28;;;;;;;71.43;31.13;;;-4.80;99.90;;;;;;8297893;28;20194;-82
2023/03/29 01:03:44;;;;;;;68.90;28.20;;;-4.70;1.00;;;;;;8298256;28;20210;-82
2023/03/29 01:07:49;;;;;;;65.17;28.70;;;-4.60;9.20;;;;;;8305983;28;20201;-83
2023/03/29 01:11:55;;;;;;;57.63;26.23;;;-4.60;99.90;;;;;;8299056;28;20201;-82
2023/03/29 01:15:57;;;;;;;49.40;22.77;;;-4.60;99.90;;;;;;8315863;28;20194;-83
2023/03/29 01:20:09;;;;;;;45.73;21.93;;;-4.60;99.90;;;;;;8301005;28;20195;-81
2023/03/29 01:24:23;;;;;;;47.67;24.00;;;-4.60;99.90;;;;;;8300896;28;20204;-83
2023/03/29 01:28:32;;;;;;;44.33;22.03;;;-4.60;1.00;;;;;;8301984;28;20217;-83
2023/03/29 01:32:46;;;;;;;43.13;19.17;;;-4.50;99.90;;;;;;8307542;28;20356;-81
2023/03/29 01:37:04;;;;;;;42.23;19.30;;;-4.50;1.00;;;;;;8303920;28;20370;-82
2023/03/29 01:41:06;;;;;;;43.30;23.17;;;-4.50;99.90;;;;;;8301066;28;20258;-82
2023/03/29 01:45:25;;;;;;;43.07;19.93;;;-4.40;99.90;;;;;;8298841;28;20194;-81
2023/03/29 01:50:00;;;;;;;39.53;19.07;;;-4.40;99.90;;;;;;8317611;28;20214;-81
2023/03/29 01:54:10;;;;;;;38.07;18.93;;;-4.40;99.90;;;;;;8297916;28;20190;-82
2023/03/29 01:58:13;;;;;;;43.90;19.17;;;-4.40;99.90;;;;;;8299696;28;20205;-82
2023/03/29 02:02:16;;;;;;;40.93;19.43;;;-4.40;1.00;;;;;;8299790;28;20266;-82
2023/03/29 02:06:22;;;;;;;36.73;19.37;;;-4.30;1.00;;;;;;8302473;28;20301;-82
2023/03/29 02:10:24;;;;;;;57.50;23.67;;;-4.30;1.00;;;;;;8296741;28;20287;-81
2023/03/29 02:14:25;;;;;;;55.90;22.73;;;-4.30;5.50;;;;;;8301817;28;20214;-82
2023/03/29 02:18:26;;;;;;;43.40;21.13;;;-4.20;23.70;;;;;;8296899;28;20197;-82
2023/03/29 02:22:32;;;;;;;39.13;18.97;;;-4.20;99.90;;;;;;8297505;28;20206;-83
2023/03/29 02:26:33;;;;;;;36.40;18.20;;;-4.20;99.90;;;;;;8299137;28;20200;-83
2023/03/29 02:31:04;;;;;;;42.37;18.20;;;-4.20;1.00;;;;;;8303991;28;20430;-82
2023/03/29 02:35:16;;;;;;;35.23;17.63;;;-4.30;99.90;;;;;;8295481;28;20218;-82
2023/03/29 02:39:18;;;;;;;29.80;16.90;;;-4.30;1.00;;;;;;8302090;28;20205;-81
2023/03/29 02:43:20;;;;;;;33.83;16.70;;;-4.30;1.00;;;;;;8306416;28;20236;-82
2023/03/29 02:47:27;;;;;;;35.77;18.07;;;-4.30;99.90;;;;;;8293277;28;20248;-83
2023/03/29 02:51:32;;;;;;;29.90;15.77;;;-4.30;99.90;;;;;;8299292;28;20229;-82
2023/03/29 02:55:34;;;;;;;25.37;13.53;;;-4.20;99.90;;;;;;8293454;28;20194;-82
2023/03/29 02:59:37;;;;;;;26.30;14.07;;;-4.20;99.90;;;;;;8297578;28;20204;-82
2023/03/29 03:03:38;;;;;;;68.87;27.60;;;-4.30;99.90;;;;;;8310157;28;20474;-83
2023/03/29 03:07:39;;;;;;;97.00;39.63;;;-4.20;99.90;;;;;;8308880;28;20200;-81
2023/03/29 03:11:41;;;;;;;90.77;38.23;;;-4.30;99.90;;;;;;8316358;28;20187;-82
2023/03/29 03:15:41;;;;;;;57.50;26.10;;;-4.30;99.90;;;;;;8313337;28;20236;-81
2023/03/29 03:19:42;;;;;;;58.43;27.40;;;-4.40;99.90;;;;;;8319847;28;20203;-85
2023/03/29 03:23:44;;;;;;;51.40;24.93;;;-4.40;99.90;;;;;;8317486;28;20207;-83
2023/03/29 03:27:45;;;;;;;50.43;23.67;;;-4.40;99.90;;;;;;8319000;28;20209;-82
2023/03/29 03:31:46;;;;;;;93.77;34.00;;;-4.40;1.00;;;;;;8314156;28;20235;-81
2023/03/29 03:35:47;;;;;;;97.80;35.30;;;-4.40;81.70;;;;;;8309184;28;20210;-81
2023/03/29 03:39:48;;;;;;;88.53;36.17;;;-4.40;99.90;;;;;;8303466;28;20309;-82
2023/03/29 03:43:49;;;;;;;119.10;37.83;;;-4.40;1.00;;;;;;8301800;28;20197;-82
2023/03/29 03:47:50;;;;;;;109.97;36.80;;;-4.40;1.00;;;;;;8295974;28;20189;-82
2023/03/29 03:51:51;;;;;;;98.27;33.33;;;-4.40;99.90;;;;;;8305936;28;20277;-83
2023/03/29 03:55:54;;;;;;;101.70;33.87;;;-4.40;99.90;;;;;;8310412;28;20285;-83
2023/03/29 03:59:55;;;;;;;105.93;36.37;;;-4.40;99.90;;;;;;8306671;28;20207;-83
2023/03/29 04:03:56;;;;;;;89.53;31.80;;;-4.40;99.90;;;;;;8299466;28;20352;-83
2023/03/29 04:07:57;;;;;;;73.30;26.40;;;-4.40;99.90;;;;;;8319802;28;20306;-82
2023/03/29 04:12:00;;;;;;;55.23;22.33;;;-4.40;1.00;;;;;;8305675;28;20186;-82
2023/03/29 04:16:02;;;;;;;46.20;20.10;;;-4.40;99.90;;;;;;8304639;28;20181;-82
2023/03/29 04:20:10;;;;;;;39.40;18.33;;;-4.30;1.00;;;;;;8304172;28;20195;-81
2023/03/29 04:24:11;;;;;;;35.00;15.80;;;-4.30;99.90;;;;;;8303790;28;20199;-82
2023/03/29 04:28:12;;;;;;;29.47;13.17;;;-4.20;1.00;;;;;;8302340;28;20219;-83
2023/03/29 04:32:13;;;;;;;26.73;11.80;;;-4.10;1.00;;;;;;8302532;28;20194;-81
2023/03/29 04:36:14;;;;;;;30.47;14.10;;;-4.00;99.90;;;;;;8305243;28;20221;-81
2023/03/29 04:40:18;;;;;;;23.57;12.90;;;-3.90;99.90;;;;;;8308626;28;20407;-81
2023/03/29 04:44:18;;;;;;;33.87;14.03;;;-3.90;99.90;;;;;;8298970;28;20213;-83
2023/03/29 04:48:21;;;;;;;36.50;17.40;;;-3.90;99.90;;;;;;8299757;28;20225;-82
2023/03/29 04:52:21;;;;;;;36.20;16.50;;;-3.90;99.90;;;;;;8303938;28;20187;-82
2023/03/29 04:56:22;;;;;;;37.20;18.67;;;-4.00;99.90;;;;;;8303085;28;20214;-79
2023/03/29 05:00:26;;;;;;;31.60;16.10;;;-4.00;99.90;;;;;;8304070;28;20224;-80
2023/03/29 05:04:27;;;;;;;38.97;17.67;;;-3.90;22.90;;;;;;8306871;28;20287;-79
2023/03/29 05:08:28;;;;;;;28.80;15.13;;;-3.70;99.90;;;;;;8304336;28;20223;-80
2023/03/29 05:12:29;;;;;;;26.87;12.00;;;-3.40;1.00;;;;;;8299696;28;20190;-80
2023/03/29 05:16:30;;;;;;;43.23;18.17;;;-3.20;1.00;;;;;;8301551;28;20191;-80
2023/03/29 05:20:31;;;;;;;99.70;34.17;;;-3.00;1.00;;;;;;8302385;28;20194;-79
2023/03/29 05:24:32;;;;;;;103.60;30.40;;;-2.90;99.90;;;;;;8300174;28;20252;-80
2023/03/29 05:28:32;;;;;;;93.03;26.83;;;-2.70;99.90;;;;;;8301383;28;20213;-80
2023/03/29 05:32:36;;;;;;;71.23;33.47;;;-2.60;1.00;;;;;;8305417;28;20277;-80
2023/03/29 05:36:37;;;;;;;69.20;32.97;;;-2.50;99.90;;;;;;8308262;28;20325;-80
2023/03/29 05:40:40;;;;;;;71.47;32.43;;;-2.60;33.30;;;;;;8307663;28;20187;-80
2023/03/29 05:44:41;;;;;;;58.47;27.13;;;-2.40;99.90;;;;;;8308238;28;20190;-80
2023/03/29 05:48:42;;;;;;;72.70;30.30;;;-2.30;99.90;;;;;;8303708;28;20211;-80
2023/03/29 05:52:43;;;;;;;62.20;25.60;;;-2.00;99.90;;;;;;8303312;28;20511;-80
2023/03/29 05:56:44;;;;;;;24.87;10.57;;;-1.70;99.90;;;;;;8298981;28;20198;-79
2023/03/29 06:00:48;;;;;;;12.03;5.10;;;-1.30;99.90;;;;;;8307315;28;20186;-79
2023/03/29 06:04:49;;;;;;;9.10;5.10;;;-0.60;1.00;;;;;;8303374;28;20197;-80
2023/03/29 06:08:49;;;;;;;8.13;4.20;;;0.10;1.00;;;;;;8307310;28;20240;-80
2023/03/29 06:12:50;;;;;;;7.17;4.20;;;0.80;99.90;;;;;;8306878;28;20490;-79
2023/03/29 06:16:52;;;;;;;10.10;3.70;;;1.40;1.00;;;;;;8318684;28;20191;-79
2023/03/29 06:20:53;;;;;;;7.93;3.77;;;1.90;99.90;;;;;;8330042;28;20240;-80
2023/03/29 06:24:53;;;;;;;4.53;3.07;;;2.20;99.90;;;;;;8350877;28;20194;-80
2023/03/29 06:28:55;;;;;;;6.87;3.50;;;2.50;99.90;;;;;;8347645;28;20214;-79
2023/03/29 06:32:58;;;;;;;7.07;3.80;;;2.70;99.90;;;;;;8349402;28;20316;-79
2023/03/29 06:36:59;;;;;;;6.00;3.07;;;2.90;99.90;;;;;;8328448;28;20219;-79
2023/03/29 06:41:05;;;;;;;9.03;4.50;;;3.10;99.90;;;;;;8300865;28;20196;-79
2023/03/29 06:45:07;;;;;;;7.53;4.53;;;3.30;76.90;;;;;;8315406;28;20199;-80
2023/03/29 06:49:08;;;;;;;11.50;4.60;;;3.50;22.00;;;;;;8299178;28;20221;-79
2023/03/29 06:53:10;;;;;;;7.50;4.47;;;3.60;8.60;;;;;;8308443;28;20219;-80
2023/03/29 06:57:11;;;;;;;10.80;5.37;;;3.70;5.60;;;;;;8302831;28;20201;-80
2023/03/29 07:01:12;;;;;;;8.17;4.30;;;3.90;1.00;;;;;;8310275;28;20202;-80
2023/03/29 07:05:14;;;;;;;9.67;4.70;;;4.20;1.00;;;;;;8308861;28;20197;-80
2023/03/29 07:09:15;;;;;;;8.53;4.20;;;4.50;1.00;;;;;;8307632;28;20221;-80
2023/03/29 07:13:16;;;;;;;8.70;4.27;;;4.80;1.00;;;;;;8310593;28;20265;-80
2023/03/29 07:17:17;;;;;;;6.07;3.83;;;5.20;1.00;;;;;;8314817;28;20187;-80
2023/03/29 07:21:19;;;;;;;9.10;4.37;;;5.50;1.00;;;;;;8309492;28;20259;-77
2023/03/29 07:25:22;;;;;;;8.60;4.87;;;5.70;1.00;;;;;;8312351;28;20297;-77
2023/03/29 07:29:23;;;;;;;7.50;4.23;;;6.00;1.00;;;;;;8308245;28;20222;-77
2023/03/29 07:33:24;;;;;;;10.17;4.70;;;6.10;1.00;;;;;;8309014;28;20202;-77
2023/03/29 07:37:25;;;;;;;9.50;4.60;;;6.20;1.00;;;;;;8303672;28;20211;-77
2023/03/29 07:41:25;;;;;;;7.53;4.30;;;6.40;1.00;;;;;;8307867;28;20208;-78
2023/03/29 07:45:29;;;;;;;8.43;3.83;;;6.70;1.00;;;;;;8306176;28;20202;-77
2023/03/29 07:49:30;;;;;;;10.13;3.80;;;6.70;1.00;;;;;;8305433;28;20210;-78
2023/03/29 07:53:32;;;;;;;6.80;3.63;;;6.90;1.00;;;;;;8301713;28;20213;-77
2023/03/29 07:57:33;;;;;;;5.67;3.43;;;7.10;1.00;;;;;;8306223;28;20239;-77
2023/03/29 08:01:34;;;;;;;9.13;3.90;;;7.10;1.00;;;;;;8306134;28;20198;-77
2023/03/29 08:05:35;;;;;;;5.57;3.60;;;7.30;1.00;;;;;;8306213;28;20202;-77
2023/03/29 08:09:36;;;;;;;7.70;3.77;;;7.50;1.00;;;;;;8307016;28;20314;-77
2023/03/29 08:13:37;;;;;;;8.37;3.90;;;7.70;1.00;;;;;;8305031;28;20198;-77
2023/03/29 08:17:38;;;;;;;7.03;3.83;;;7.90;1.00;;;;;;8311127;28;20190;-77
2023/03/29 08:21:39;;;;;;;8.67;3.93;;;8.00;1.00;;;;;;8310797;28;20297;-77
2023/03/29 08:25:40;;;;;;;6.03;3.57;;;8.20;1.00;;;;;;8311214;28;20198;-77
2023/03/29 08:29:41;;;;;;;9.47;3.17;;;8.40;1.00;;;;;;8302355;28;20293;-78
2023/03/29 08:33:43;;;;;;;6.07;2.93;;;8.60;1.00;;;;;;8314344;28;20191;-77
2023/03/29 08:37:43;;;;;;;6.83;3.03;;;8.80;1.00;;;;;;8310950;28;20256;-77
2023/03/29 08:42:16;;;;;;;5.10;3.30;;;9.10;1.00;;;;;;8303207;28;20179;-78
2023/03/29 08:47:01;;;;;;;7.70;3.50;;;9.60;1.00;;;;;;8307298;28;20254;-78
2023/03/29 08:51:44;;;;;;;7.23;3.30;;;9.80;1.00;;;;;;8194619;28;20315;-77
2023/03/29 08:55:47;;;;;;;7.13;3.27;;;10.10;1.00;;;;;;8274299;28;20195;-77
2023/03/29 09:00:20;;;;;;;6.10;2.87;;;10.20;1.00;;;;;;8308964;28;20309;-78
2023/03/29 09:04:48;;;;;;;7.27;3.37;;;10.40;1.00;;;;;;8305191;28;20283;-78
2023/03/29 09:09:01;;;;;;;6.17;2.83;;;10.70;1.00;;;;;;8195806;28;20224;-77
2023/03/29 09:13:33;;;;;;;6.00;2.80;;;10.80;1.00;;;;;;8215105;28;20237;-77
2023/03/29 09:18:06;;;;;;;5.03;2.80;;;10.90;1.00;;;;;;8218219;28;20200;-78
2023/03/29 09:22:45;;;;;;;6.37;2.60;;;11.00;1.00;;;;;;8323157;28;20245;-77
2023/03/29 09:27:18;;;;;;;3.93;2.53;;;11.30;1.00;;;;;;8330610;28;20192;-78
2023/03/29 09:31:40;;;;;;;4.33;2.33;;;11.50;1.00;;;;;;8319720;28;20275;-78
2023/03/29 09:36:02;;;;;;;5.97;2.37;;;11.60;1.00;;;;;;8299516;28;20292;-78
2023/03/29 09:40:32;;;;;;;4.70;1.97;;;11.70;1.00;;;;;;8299320;28;20317;-78
2023/03/29 09:44:51;;;;;;;3.10;1.63;;;11.70;1.00;;;;;;8306413;28;20198;-78
2023/03/29 09:48:53;;;;;;;2.23;1.40;;;11.90;1.00;;;;;;8305008;28;20310;-78
2023/03/29 09:52:54;;;;;;;4.17;1.50;;;11.90;1.00;;;;;;8292347;28;20187;-78
2023/03/29 09:56:55;;;;;;;4.23;1.80;;;12.00;1.00;;;;;;8283069;28;20210;-78
2023/03/29 10:01:03;;;;;;;7.30;2.17;;;11.70;1.00;;;;;;8292738;28;20213;-77
2023/03/29 10:05:06;;;;;;;4.90;2.07;;;11.50;1.00;;;;;;8302187;28;20193;-77
2023/03/29 10:09:15;;;;;;;3.47;1.73;;;11.20;1.00;;;;;;8304097;28;20215;-78
2023/03/29 10:13:27;;;;;;;3.83;1.93;;;11.70;1.00;;;;;;8307468;28;20278;-78
2023/03/29 10:17:32;;;;;;;3.80;1.80;;;12.00;1.00;;;;;;8294943;28;20186;-78
2023/03/29 10:21:32;;;;;;;6.43;1.80;;;12.00;1.00;;;;;;8303604;28;20207;-77
2023/03/29 10:25:39;;;;;;;6.43;2.23;;;12.00;1.00;;;;;;8307798;28;20191;-78
2023/03/29 10:29:42;;;;;;;5.10;1.80;;;11.90;1.00;;;;;;8302785;28;20221;-77
2023/03/29 10:33:49;;;;;;;4.83;2.10;;;11.60;1.00;;;;;;8319383;28;20183;-78
2023/03/29 10:37:54;;;;;;;5.00;2.10;;;11.60;1.00;;;;;;8315618;28;20224;-78
2023/03/29 10:41:57;;;;;;;3.50;1.93;;;11.50;1.00;;;;;;8312827;28;20189;-78
2023/03/29 10:46:18;;;;;;;5.23;1.60;;;11.40;1.00;;;;;;8311953;28;20189;-78
2023/03/29 10:50:19;;;;;;;2.03;1.70;;;11.50;1.00;;;;;;8311052;28;20529;-78
2023/03/29 10:54:23;;;;;;;3.40;1.50;;;11.50;1.00;;;;;;8313841;28;20188;-77
2023/03/29 10:58:42;;;;;;;2.50;1.30;;;11.50;1.00;;;;;;8314757;28;20205;-77
2023/03/29 11:03:07;;;;;;;3.10;1.57;;;11.50;1.00;;;;;;8304400;28;20272;-78
2023/03/29 11:07:21;;;;;;;1.67;1.37;;;11.50;1.00;;;;;;8305398;28;20195;-79
2023/03/29 11:11:28;;;;;;;6.20;1.63;;;11.30;1.00;;;;;;8308278;28;20210;-77
2023/03/29 11:15:57;;;;;;;2.53;1.70;;;11.20;1.00;;;;;;8301263;28;20190;-78
2023/03/29 11:20:14;;;;;;;3.00;1.50;;;11.20;1.00;;;;;;8308853;28;20209;-78
2023/03/29 11:24:34;;;;;;;3.03;1.40;;;11.20;1.00;;;;;;8303745;28;20206;-78
2023/03/29 11:29:00;;;;;;;3.10;1.33;;;11.20;1.00;;;;;;8306615;28;20221;-78
2023/03/29 11:33:07;;;;;;;4.37;1.40;;;11.10;1.00;;;;;;8306879;28;20201;-78
2023/03/29 11:37:54;;;;;;;6.40;1.33;;;11.10;1.00;;;;;;8303271;28;20212;-78
2023/03/29 11:42:03;;;;;;;261.27;142.80;;;11.20;1.00;;;;;;8305831;28;20273;-78
2023/03/29 11:46:30;;;;;;;51.73;34.73;;;11.40;1.00;;;;;;8309442;28;20212;-77
2023/03/29 11:50:57;;;;;;;34.27;22.90;;;11.50;1.00;;;;;;8304898;28;20221;-78
2023/03/29 11:55:15;;;;;;;9.37;5.70;;;11.60;1.00;;;;;;8302554;28;20322;-78
2023/03/29 11:59:23;;;;;;;12.13;5.70;;;11.90;1.00;;;;;;8309566;28;20297;-78
2023/03/29 12:03:47;;;;;;;4.23;1.87;;;12.40;1.00;;;;;;8310288;28;20259;-77
2023/03/29 12:08:00;;;;;;;5.33;3.40;;;12.70;1.00;;;;;;8315178;28;20240;-78
2023/03/29 12:12:09;;;;;;;7.83;4.43;;;12.80;1.00;;;;;;8309764;28;20283;-78
2023/03/29 12:16:24;;;;;;;7.83;4.17;;;12.90;1.00;;;;;;8322447;28;20186;-78
2023/03/29 12:20:30;;;;;;;6.97;4.07;;;13.10;1.00;;;;;;8304893;28;20207;-78
2023/03/29 12:24:32;;;;;;;4.50;1.90;;;13.30;1.00;;;;;;8309444;28;20302;-77
2023/03/29 12:29:03;;;;;;;2.60;1.60;;;13.50;1.00;;;;;;8324501;28;20226;-78
2023/03/29 12:33:30;;;;;;;8.27;3.97;;;13.30;1.00;;;;;;8314718;28;20182;-77
2023/03/29 12:38:07;;;;;;;5.00;2.20;;;13.10;1.00;;;;;;8324841;28;20201;-78
2023/03/29 12:42:20;;;;;;;4.23;1.67;;;12.90;1.00;;;;;;8346699;28;20183;-79
2023/03/29 12:46:30;;;;;;;28.67;16.17;;;12.70;1.00;;;;;;8350360;28;20179;-79
2023/03/29 12:50:34;;;;;;;3.37;2.30;;;12.50;1.00;;;;;;8352287;28;20307;-77
2023/03/29 12:54:35;;;;;;;9.27;4.30;;;12.30;1.00;;;;;;8363151;28;20180;-78
2023/03/29 12:58:49;;;;;;;5.13;2.27;;;12.20;1.00;;;;;;8323286;28;20205;-78
2023/03/29 13:03:18;;;;;;;3.13;1.67;;;12.40;1.00;;;;;;8298633;28;20325;-78
2023/03/29 13:07:22;;;;;;;2.73;1.67;;;12.70;1.00;;;;;;8310040;28;20190;-78
2023/03/29 13:11:28;;;;;;;2.47;1.53;;;12.60;1.00;;;;;;8310283;28;20605;-78
2023/03/29 13:15:33;;;;;;;2.20;1.20;;;12.40;1.00;;;;;;8298716;28;20191;-78
2023/03/29 13:19:43;;;;;;;2.27;1.50;;;12.20;1.00;;;;;;8323636;28;20246;-78
2023/03/29 13:23:56;;;;;;;4.77;1.80;;;12.20;1.00;;;;;;8301771;28;20190;-78
2023/03/29 13:28:35;;;;;;;4.17;1.53;;;12.30;1.00;;;;;;8303062;28;20210;-77
2023/03/29 13:33:02;;;;;;;3.57;2.53;;;12.40;1.00;;;;;;8296296;28;20187;-78
2023/03/29 13:37:21;;;;;;;2.77;1.47;;;12.40;1.00;;;;;;8308512;28;20256;-78
2023/03/29 13:41:30;;;;;;;3.10;1.70;;;12.30;1.00;;;;;;8304894;28;20195;-78
2023/03/29 13:45:33;;;;;;;2.40;1.40;;;12.20;1.00;;;;;;8308365;28;20175;-79
2023/03/29 13:49:35;;;;;;;1.60;1.20;;;12.20;1.00;;;;;;8300313;28;20221;-79
2023/03/29 13:53:42;;;;;;;1.60;1.30;;;11.90;1.00;;;;;;8313283;28;20178;-79
2023/03/29 13:57:59;;;;;;;2.27;1.47;;;12.00;1.00;;;;;;8319574;28;20254;-79
2023/03/29 14:02:03;;;;;;;4.50;1.67;;;11.80;1.00;;;;;;8301872;28;20185;-79
2023/03/29 14:06:05;;;;;;;3.97;1.63;;;11.70;1.00;;;;;;8308179;28;20214;-79
2023/03/29 14:10:07;;;;;;;3.30;1.80;;;11.70;1.00;;;;;;8300718;28;20260;-79
2023/03/29 14:14:09;;;;;;;3.73;1.90;;;11.80;1.00;;;;;;8307507;28;20213;-78
2023/03/29 14:18:13;;;;;;;3.60;2.07;;;11.40;1.00;;;;;;8306186;28;20242;-78
2023/03/29 14:22:17;;;;;;;14.13;7.30;;;10.90;1.00;;;;;;8306232;28;20205;-78
2023/03/29 14:26:21;;;;;;;3.17;2.40;;;10.90;1.00;;;;;;8302602;28;20185;-79
2023/03/29 14:30:26;;;;;;;3.43;2.57;;;10.80;1.00;;;;;;8303349;28;20213;-79
2023/03/29 14:34:27;;;;;;;3.20;2.40;;;11.00;1.00;;;;;;8307843;28;20285;-79
2023/03/29 14:38:30;;;;;;;3.17;2.40;;;10.70;1.00;;;;;;8299432;28;20192;-77
2023/03/29 14:42:31;;;;;;;3.50;2.67;;;10.50;1.00;;;;;;8306922;28;20181;-77
2023/03/29 14:46:32;;;;;;;4.10;2.80;;;10.50;1.00;;;;;;8304917;28;20188;-79
2023/03/29 14:50:35;;;;;;;7.50;2.90;;;10.50;1.00;;;;;;8302663;28;20236;-79
2023/03/29 14:54:36;;;;;;;3.90;2.50;;;10.60;1.00;;;;;;8305957;28;20200;-78
2023/03/29 14:58:38;;;;;;;3.90;2.47;;;10.70;1.00;;;;;;8310150;28;20185;-77
2023/03/29 15:02:57;;;;;;;3.33;2.37;;;10.70;1.00;;;;;;8289446;28;20247;-77
2023/03/29 15:06:58;;;;;;;4.40;2.50;;;10.40;1.00;;;;;;8301950;28;20499;-77
2023/03/29 15:11:00;;;;;;;4.17;2.47;;;10.20;1.00;;;;;;8307812;28;20262;-77
2023/03/29 15:15:02;;;;;;;6.47;2.40;;;10.00;1.00;;;;;;8310336;28;20188;-77
2023/03/29 15:19:03;;;;;;;4.03;2.43;;;9.80;1.00;;;;;;8306909;28;20282;-78
2023/03/29 15:23:16;;;;;;;5.20;3.07;;;9.70;1.00;;;;;;8316016;28;20391;-78
2023/03/29 15:27:18;;;;;;;5.10;3.00;;;9.60;1.00;;;;;;8329755;28;20210;-78
2023/03/29 15:31:25;;;;;;;4.30;2.60;;;9.50;1.00;;;;;;8323754;28;20214;-78
2023/03/29 15:35:26;;;;;;;2.47;1.83;;;9.50;1.00;;;;;;8324928;28;20316;-78
2023/03/29 15:39:28;;;;;;;4.67;2.60;;;9.50;1.00;;;;;;8327320;28;20557;-77
2023/03/29 15:43:29;;;;;;;2.87;2.57;;;9.50;1.00;;;;;;8348098;28;20171;-79
2023/03/29 15:47:30;;;;;;;3.47;2.50;;;9.40;1.00;;;;;;8345463;28;20202;-78
2023/03/29 15:51:31;;;;;;;4.30;2.90;;;9.30;1.00;;;;;;8343420;28;20280;-78
2023/03/29 15:55:32;;;;;;;5.77;2.77;;;9.30;1.00;;;;;;8354735;28;20376;-79
2023/03/29 15:59:35;;;;;;;5.43;2.87;;;9.20;1.00;;;;;;8324319;28;20209;-77
2023/03/29 16:03:37;;;;;;;4.60;2.70;;;9.10;1.00;;;;;;8303294;28;20183;-78
2023/03/29 16:07:38;;;;;;;4.40;2.93;;;9.10;1.00;;;;;;8309461;28;20179;-78
2023/03/29 16:11:40;;;;;;;4.93;3.23;;;9.10;1.00;;;;;;8311212;28;20298;-77
2023/03/29 16:15:41;;;;;;;6.80;3.20;;;9.10;1.00;;;;;;8311894;28;20178;-77
2023/03/29 16:19:42;;;;;;;5.93;4.00;;;9.00;1.00;;;;;;8310235;28;20298;-78
2023/03/29 16:23:45;;;;;;;6.57;4.40;;;9.00;1.00;;;;;;8317079;28;20190;-78
2023/03/29 16:27:46;;;;;;;7.27;4.60;;;9.00;1.00;;;;;;8304964;28;20183;-78
2023/03/29 16:31:48;;;;;;;6.30;4.83;;;8.80;1.00;;;;;;8306450;28;20308;-78
2023/03/29 16:35:49;;;;;;;8.03;5.43;;;8.70;1.00;;;;;;8309872;28;20207;-79
2023/03/29 16:39:50;;;;;;;7.37;5.10;;;8.50;1.00;;;;;;8306530;28;20197;-79
2023/03/29 16:43:51;;;;;;;9.57;4.87;;;8.50;1.00;;;;;;8309546;28;20187;-79
2023/03/29 16:47:53;;;;;;;9.50;5.07;;;8.40;1.00;;;;;;8309224;28;20214;-79
2023/03/29 16:51:54;;;;;;;5.80;4.10;;;8.40;1.00;;;;;;8308883;28;20206;-79
2023/03/29 16:55:56;;;;;;;6.97;5.20;;;8.30;1.00;;;;;;8312377;28;20176;-79
2023/03/29 16:59:57;;;;;;;8.03;4.60;;;8.30;1.00;;;;;;8309287;28;20186;-78
2023/03/29 17:03:58;;;;;;;6.40;4.73;;;8.30;1.00;;;;;;8309194;28;20194;-79
2023/03/29 17:07:59;;;;;;;6.10;4.43;;;8.20;1.00;;;;;;8304533;28;20188;-78
2023/03/29 17:12:00;;;;;;;6.07;4.13;;;8.00;1.00;;;;;;8311607;28;20214;-79
2023/03/29 17:16:00;;;;;;;5.87;4.10;;;7.80;1.00;;;;;;8310918;28;20253;-78
2023/03/29 17:20:01;;;;;;;5.37;3.70;;;7.60;1.00;;;;;;8306745;28;20218;-79
2023/03/29 17:24:02;;;;;;;6.07;4.33;;;7.40;1.00;;;;;;8303668;28;20179;-78
2023/03/29 17:28:03;;;;;;;6.80;4.27;;;7.30;1.00;;;;;;8308739;28;20179;-78
2023/03/29 17:32:05;;;;;;;6.20;4.00;;;7.20;1.00;;;;;;8308574;28;20268;-78
2023/03/29 17:36:06;;;;;;;7.00;3.80;;;7.20;1.00;;;;;;8305304;28;20222;-79
2023/03/29 17:40:12;;;;;;;6.13;4.03;;;7.20;1.00;;;;;;8310805;28;20186;-78
2023/03/29 17:44:13;;;;;;;6.63;4.07;;;7.20;1.00;;;;;;8306939;28;20607;-79
2023/03/29 17:48:14;;;;;;;5.93;4.10;;;7.20;1.00;;;;;;8306339;28;20187;-83
2023/03/29 17:52:15;;;;;;;5.83;4.10;;;7.20;1.00;;;;;;8304258;28;20269;-82
2023/03/29 17:56:16;;;;;;;5.17;3.97;;;7.20;1.00;;;;;;8305204;28;20187;-83
2023/03/29 18:00:18;;;;;;;6.43;4.27;;;7.20;1.00;;;;;;8299925;28;20187;-82
2023/03/29 18:04:19;;;;;;;5.20;4.13;;;7.20;1.00;;;;;;8304155;28;20191;-83
2023/03/29 18:08:20;;;;;;;4.93;3.77;;;7.10;1.00;;;;;;8307246;28;20207;-83
2023/03/29 18:12:24;;;;;;;5.87;3.97;;;7.00;1.00;;;;;;8307450;28;20179;-82
2023/03/29 18:16:25;;;;;;;5.23;3.40;;;7.00;1.00;;;;;;8307009;28;20187;-82
2023/03/29 18:20:26;;;;;;;4.90;3.57;;;7.00;1.60;;;;;;8310297;28;20202;-83
2023/03/29 18:24:27;;;;;;;5.90;4.10;;;7.00;4.60;;;;;;8302088;28;20249;-83
2023/03/29 18:28:29;;;;;;;7.87;5.70;;;6.90;9.20;;;;;;8302346;28;20182;-82
2023/03/29 18:32:30;;;;;;;8.47;5.87;;;6.90;10.90;;;;;;8305944;28;20183;-83
2023/03/29 18:36:31;;;;;;;10.40;6.37;;;6.90;16.30;;;;;;8297035;28;20220;-83
2023/03/29 18:40:33;;;;;;;11.40;6.93;;;6.80;18.10;;;;;;8307938;28;20190;-83
2023/03/29 18:44:34;;;;;;;14.83;7.93;;;6.70;19.00;;;;;;8310197;28;20290;-83
2023/03/29 18:48:37;;;;;;;12.90;7.53;;;6.60;23.40;;;;;;8310689;28;20211;-82
2023/03/29 18:52:38;;;;;;;11.17;7.73;;;6.50;25.30;;;;;;8305011;28;20182;-83
2023/03/29 18:56:39;;;;;;;12.23;7.50;;;6.40;31.80;;;;;;8318218;28;20179;-83
2023/03/29 19:00:41;;;;;;;11.87;6.93;;;6.40;43.00;;;;;;8322222;28;20194;-84
2023/03/29 19:04:42;;;;;;;10.97;7.47;;;6.30;48.80;;;;;;8327147;28;20183;-85
2023/03/29 19:08:43;;;;;;;11.83;6.87;;;6.20;54.80;;;;;;8332697;28;20217;-85
2023/03/29 19:12:44;;;;;;;11.47;7.47;;;6.10;59.70;;;;;;8328858;28;20270;-82
2023/03/29 19:16:45;;;;;;;11.63;7.80;;;6.00;69.70;;;;;;8319759;28;20191;-84
2023/03/29 19:20:49;;;;;;;12.17;7.40;;;6.00;77.70;;;;;;8314502;28;20200;-82
2023/03/29 19:24:50;;;;;;;10.93;7.80;;;5.90;81.70;;;;;;8314891;28;20182;-83
2023/03/29 19:28:51;;;;;;;15.03;8.13;;;5.80;90.00;;;;;;8309791;28;20249;-83
2023/03/29 19:32:52;;;;;;;9.10;6.80;;;5.70;98.60;;;;;;8310048;28;20178;-84
2023/03/29 19:36:54;;;;;;;12.70;7.30;;;5.70;99.60;;;;;;8307262;28;20297;-83
2023/03/29 19:40:54;;;;;;;10.83;6.60;;;5.70;99.90;;;;;;8307119;28;20413;-83
2023/03/29 19:44:55;;;;;;;12.17;8.60;;;5.80;99.90;;;;;;8305584;28;20530;-83
2023/03/29 19:48:58;;;;;;;14.93;8.30;;;5.80;99.90;;;;;;8304745;28;20207;-83
2023/03/29 19:52:59;;;;;;;12.50;7.30;;;5.90;99.90;;;;;;8305015;28;20185;-83
2023/03/29 19:57:00;;;;;;;12.87;7.73;;;5.90;99.90;;;;;;8314178;28;20229;-83
2023/03/29 20:01:01;;;;;;;19.80;9.70;;;5.90;99.90;;;;;;8310677;28;20230;-83
2023/03/29 20:05:03;;;;;;;15.93;8.80;;;5.90;99.90;;;;;;8322573;28;20285;-83
2023/03/29 20:09:04;;;;;;;15.33;7.90;;;5.90;99.90;;;;;;8310109;28;20199;-83
2023/03/29 20:13:05;;;;;;;14.20;8.30;;;5.90;99.90;;;;;;8304835;28;20190;-83
2023/03/29 20:17:06;;;;;;;17.33;11.30;;;5.90;99.90;;;;;;8301511;28;20186;-83
2023/03/29 20:21:08;;;;;;;45.47;22.43;;;5.90;99.90;;;;;;8308889;28;20213;-83
2023/03/29 20:25:09;;;;;;;35.13;18.73;;;5.90;99.90;;;;;;8308379;28;20199;-83
2023/03/29 20:29:10;;;;;;;36.57;18.80;;;5.80;99.90;;;;;;8297600;28;20253;-82
2023/03/29 20:33:11;;;;;;;41.03;19.37;;;5.70;99.90;;;;;;8305576;28;20187;-84
2023/03/29 20:37:13;;;;;;;28.43;14.43;;;5.70;99.90;;;;;;8300365;28;20199;-83
2023/03/29 20:41:14;;;;;;;24.30;13.23;;;5.60;99.90;;;;;;8312112;28;20183;-84
2023/03/29 20:45:18;;;;;;;37.57;15.63;;;5.60;99.90;;;;;;8308134;28;20207;-83
2023/03/29 20:49:25;;;;;;;26.53;13.27;;;5.40;99.90;;;;;;8305813;28;20272;-83
2023/03/29 20:53:33;;;;;;;18.30;9.87;;;5.30;99.90;;;;;;8305359;28;20181;-83
2023/03/29 20:57:35;;;;;;;15.70;7.73;;;5.20;99.90;;;;;;8320901;28;20203;-83
2023/03/29 21:01:39;;;;;;;13.40;7.47;;;5.20;99.90;;;;;;8301346;28;20187;-82
2023/03/29 21:05:40;;;;;;;12.90;6.90;;;5.20;99.90;;;;;;8309083;28;20197;-83
2023/03/29 21:09:41;;;;;;;10.40;6.73;;;5.20;99.90;;;;;;8307885;28;20207;-83
2023/03/29 21:13:42;;;;;;;11.27;6.73;;;5.20;99.90;;;;;;8309872;28;20174;-83
2023/03/29 21:17:44;;;;;;;15.00;7.93;;;5.30;99.90;;;;;;8307193;28;20283;-84
2023/03/29 21:21:46;;;;;;;26.50;10.37;;;5.30;99.90;;;;;;8306573;28;20284;-85
2023/03/29 21:25:47;;;;;;;32.87;14.43;;;5.30;99.90;;;;;;8307500;28;20259;-84